Time;durP1;ratioP1;P1;durP2;ratioP2;P2;SDS_P1;SDS_P2;PMS_P1;PMS_P2;Temp;Humidity;BMP_temperature;BMP_pressure;BME280_temperature;BME280_humidity;BME280_pressure;Samples;Min_cycle;Max_cycle;Signal;HPM_P1;HPM_P2
2023/03/28 00:00:22;;;;;;;6.07;2.07;;;2.10;99.90;;;;;;5054402;28;20174;-70
2023/03/28 00:02:47;;;;;;;3.63;1.23;;;2.00;99.90;;;;;;5054334;28;20194;-71
2023/03/28 00:05:13;;;;;;;3.13;1.73;;;2.00;99.90;;;;;;5038610;28;20195;-70
2023/03/28 00:07:38;;;;;;;3.00;1.93;;;2.00;99.90;;;;;;5034027;28;20617;-70
2023/03/28 00:10:06;;;;;;;1.00;0.87;;;1.90;99.90;;;;;;5034297;28;20164;-70
2023/03/28 00:12:31;;;;;;;1.10;0.93;;;1.90;99.90;;;;;;5038814;28;20713;-70
2023/03/28 00:14:57;;;;;;;2.83;0.87;;;1.90;99.90;;;;;;5064930;28;20437;-70
2023/03/28 00:17:23;;;;;;;3.03;1.10;;;1.80;99.90;;;;;;5053905;28;20173;-70
2023/03/28 00:19:52;;;;;;;1.70;0.97;;;1.80;99.90;;;;;;5054068;28;20508;-70
2023/03/28 00:22:19;;;;;;;9.50;2.23;;;1.80;99.90;;;;;;5053845;28;20405;-70
2023/03/28 00:24:45;;;;;;;3.43;1.60;;;1.80;99.90;;;;;;5053908;28;20460;-70
2023/03/28 00:27:11;;;;;;;9.93;2.00;;;1.80;99.90;;;;;;5053549;28;20496;-71
2023/03/28 00:29:36;;;;;;;6.73;0.97;;;1.80;99.90;;;;;;5053762;28;20881;-70
2023/03/28 00:32:02;;;;;;;3.27;1.73;;;1.70;99.90;;;;;;5053495;28;20170;-70
2023/03/28 00:34:27;;;;;;;7.73;1.57;;;1.70;99.90;;;;;;5053722;28;20200;-70
2023/03/28 00:36:53;;;;;;;2.70;1.30;;;1.70;99.90;;;;;;5053496;28;20201;-71
2023/03/28 00:39:20;;;;;;;4.13;1.30;;;1.70;99.90;;;;;;5053547;28;20183;-71
2023/03/28 00:41:45;;;;;;;2.20;1.80;;;1.70;99.90;;;;;;5052514;28;20516;-70
2023/03/28 00:44:35;;;;;;;1.80;1.30;;;1.70;99.90;;;;;;5053424;28;20539;-70
2023/03/28 00:47:01;;;;;;;11.57;1.53;;;1.60;99.90;;;;;;5053179;28;20181;-70
2023/03/28 00:49:27;;;;;;;4.83;1.43;;;1.60;99.90;;;;;;5053378;28;20759;-71
2023/03/28 00:51:56;;;;;;;3.10;1.20;;;1.60;99.90;;;;;;5053414;28;20178;-70
2023/03/28 00:54:26;;;;;;;5.23;1.73;;;1.50;99.90;;;;;;5051886;28;20198;-70
2023/03/28 00:56:55;;;;;;;5.33;1.47;;;1.60;99.90;;;;;;5053144;28;20412;-70
2023/03/28 00:59:25;;;;;;;3.43;2.07;;;1.60;99.90;;;;;;5053213;28;20405;-71
2023/03/28 01:01:54;;;;;;;6.40;1.80;;;1.50;99.90;;;;;;5053200;28;20467;-70
2023/03/28 01:04:23;;;;;;;7.47;2.13;;;1.50;99.90;;;;;;5044800;28;20519;-70
2023/03/28 01:06:53;;;;;;;3.73;1.80;;;1.50;99.90;;;;;;5032931;28;20417;-70
2023/03/28 01:09:22;;;;;;;5.57;1.30;;;1.50;99.90;;;;;;5032988;28;20406;-70
2023/03/28 01:11:48;;;;;;;2.63;1.90;;;1.50;99.90;;;;;;5032991;28;20931;-70
2023/03/28 01:14:18;;;;;;;3.80;1.83;;;1.50;99.90;;;;;;5032748;28;20449;-71
2023/03/28 01:16:46;;;;;;;1.50;1.30;;;1.50;99.90;;;;;;5050691;28;20493;-70
2023/03/28 01:19:43;;;;;;;5.83;2.20;;;1.50;99.90;;;;;;5061346;28;20420;-70
2023/03/28 01:22:22;;;;;;;4.40;1.37;;;1.50;99.90;;;;;;5072550;28;20461;-70
2023/03/28 01:25:06;;;;;;;6.30;1.97;;;1.50;99.90;;;;;;5072555;28;20460;-70
2023/03/28 01:28:02;;;;;;;8.70;1.50;;;1.50;99.90;;;;;;5072277;28;20504;-70
2023/03/28 01:30:39;;;;;;;3.00;1.20;;;1.50;99.90;;;;;;5067775;28;20430;-70
2023/03/28 01:33:32;;;;;;;2.40;1.30;;;1.40;99.90;;;;;;5071228;28;20439;-70
2023/03/28 01:36:16;;;;;;;3.87;1.33;;;1.40;99.90;;;;;;5071148;28;20969;-70
2023/03/28 01:38:58;;;;;;;5.13;1.67;;;1.40;99.90;;;;;;5072137;28;20400;-71
2023/03/28 01:41:49;;;;;;;6.10;1.43;;;1.40;99.90;;;;;;5072300;28;20392;-70
2023/03/28 01:44:37;;;;;;;3.27;1.60;;;1.40;99.90;;;;;;5071869;28;20452;-70
2023/03/28 01:47:18;;;;;;;2.27;1.43;;;1.30;99.90;;;;;;5072064;28;20400;-70
2023/03/28 01:49:50;;;;;;;3.57;1.50;;;1.30;99.90;;;;;;5072339;28;20405;-70
2023/03/28 01:52:35;;;;;;;1.80;1.20;;;1.30;99.90;;;;;;5071961;28;20491;-71
2023/03/28 01:55:20;;;;;;;2.67;1.10;;;1.20;99.90;;;;;;5071040;28;20465;-71
2023/03/28 01:57:48;;;;;;;2.23;0.90;;;1.20;99.90;;;;;;5072015;28;20825;-70
2023/03/28 02:00:42;;;;;;;2.90;1.57;;;1.20;99.90;;;;;;5072199;28;20802;-70
2023/03/28 02:03:13;;;;;;;2.73;2.53;;;1.10;99.90;;;;;;5071847;28;20824;-70
2023/03/28 02:05:40;;;;;;;1.90;1.80;;;1.10;99.90;;;;;;5052902;28;20474;-70
2023/03/28 02:08:08;;;;;;;3.87;1.30;;;1.10;99.90;;;;;;5051703;28;20404;-71
2023/03/28 02:10:35;;;;;;;4.40;2.03;;;1.10;99.90;;;;;;5051966;28;20416;-70
2023/03/28 02:13:13;;;;;;;10.13;1.70;;;1.20;99.90;;;;;;5051857;28;20429;-70
2023/03/28 02:15:41;;;;;;;3.30;2.10;;;1.20;99.90;;;;;;5051997;28;20397;-70
2023/03/28 02:18:13;;;;;;;11.70;2.83;;;1.20;99.90;;;;;;5050301;28;20491;-70
2023/03/28 02:20:41;;;;;;;2.70;1.63;;;1.10;99.90;;;;;;5052082;28;20841;-70
2023/03/28 02:23:09;;;;;;;3.53;1.20;;;1.10;99.90;;;;;;5052686;28;20446;-71
2023/03/28 02:25:36;;;;;;;4.03;1.97;;;1.10;99.90;;;;;;5055390;28;20456;-71
2023/03/28 02:28:05;;;;;;;3.67;1.50;;;1.10;99.90;;;;;;5051818;28;20416;-71
2023/03/28 02:30:31;;;;;;;3.83;1.87;;;1.10;99.90;;;;;;5059201;28;20733;-70
2023/03/28 02:33:03;;;;;;;6.53;3.90;;;1.10;99.90;;;;;;5057783;28;20504;-72
2023/03/28 02:35:51;;;;;;;29.47;11.37;;;1.00;99.90;;;;;;5052987;28;20763;-72
2023/03/28 02:38:47;;;;;;;5.17;2.60;;;1.00;99.90;;;;;;5054521;28;20794;-70
2023/03/28 02:41:44;;;;;;;3.27;1.90;;;1.10;99.90;;;;;;5050409;28;20424;-70
2023/03/28 02:44:37;;;;;;;8.03;1.90;;;1.10;99.90;;;;;;5051620;28;20453;-73
2023/03/28 02:47:19;;;;;;;4.30;1.83;;;1.00;99.90;;;;;;5054941;28;20394;-71
2023/03/28 02:50:07;;;;;;;3.93;1.77;;;1.00;99.90;;;;;;5053568;28;20400;-69
2023/03/28 02:52:55;;;;;;;3.73;1.57;;;1.00;99.90;;;;;;5050269;28;20499;-69
2023/03/28 02:55:30;;;;;;;3.80;2.07;;;0.90;99.90;;;;;;5055219;28;20397;-69
2023/03/28 02:58:09;;;;;;;12.30;2.57;;;0.90;99.90;;;;;;5055495;28;20457;-71
2023/03/28 03:00:36;;;;;;;6.37;1.97;;;0.90;99.90;;;;;;5058025;28;20412;-72
2023/03/28 03:03:02;;;;;;;5.60;2.90;;;1.00;99.90;;;;;;5056652;28;20421;-70
2023/03/28 03:05:28;;;;;;;8.53;4.63;;;1.00;99.90;;;;;;5037682;28;20446;-71
2023/03/28 03:07:55;;;;;;;6.13;2.13;;;0.90;99.90;;;;;;5035249;28;20437;-71
2023/03/28 03:10:21;;;;;;;4.50;2.90;;;0.90;99.90;;;;;;5035216;28;20551;-71
2023/03/28 03:12:46;;;;;;;4.50;2.20;;;0.90;99.90;;;;;;5035138;28;20421;-71
2023/03/28 03:15:15;;;;;;;4.30;1.77;;;0.90;99.90;;;;;;5035206;28;20182;-70
2023/03/28 03:17:42;;;;;;;1.90;1.20;;;0.80;99.90;;;;;;5035037;28;20409;-70
2023/03/28 03:20:08;;;;;;;6.77;2.20;;;0.90;99.90;;;;;;5035145;28;20420;-71
2023/03/28 03:22:35;;;;;;;4.90;1.90;;;0.80;99.90;;;;;;5035263;28;20480;-71
2023/03/28 03:25:06;;;;;;;4.63;1.83;;;0.90;99.90;;;;;;5034981;28;20460;-71
2023/03/28 03:27:33;;;;;;;9.30;1.97;;;0.80;99.90;;;;;;5033570;28;20906;-70
2023/03/28 03:29:59;;;;;;;2.83;1.57;;;0.80;99.90;;;;;;5035471;28;20450;-72
2023/03/28 03:32:25;;;;;;;1.60;1.47;;;0.90;99.90;;;;;;5038256;28;20406;-71
2023/03/28 03:34:50;;;;;;;8.57;1.60;;;0.90;99.90;;;;;;5039821;28;20250;-71
2023/03/28 03:37:16;;;;;;;7.43;1.70;;;0.90;99.90;;;;;;5063059;28;20209;-72
2023/03/28 03:39:43;;;;;;;5.63;2.33;;;1.00;99.90;;;;;;5078455;28;20164;-71
2023/03/28 03:42:09;;;;;;;1.90;1.43;;;0.90;99.90;;;;;;5078174;28;20426;-71
2023/03/28 03:44:34;;;;;;;2.73;1.83;;;0.90;99.90;;;;;;5078779;28;20469;-69
2023/03/28 03:47:00;;;;;;;6.27;2.17;;;1.00;99.90;;;;;;5074333;28;20486;-69
2023/03/28 03:49:25;;;;;;;3.00;1.87;;;1.00;99.90;;;;;;5074483;28;20162;-69
2023/03/28 03:51:51;;;;;;;8.97;1.93;;;1.00;99.90;;;;;;5074798;28;20158;-71
2023/03/28 03:54:17;;;;;;;2.67;1.30;;;1.00;99.90;;;;;;5074412;28;20186;-70
2023/03/28 03:56:43;;;;;;;5.57;2.10;;;1.00;99.90;;;;;;5077361;28;20352;-72
2023/03/28 03:59:09;;;;;;;6.77;1.80;;;1.00;99.90;;;;;;5075178;28;20757;-71
2023/03/28 04:01:35;;;;;;;6.63;2.20;;;1.00;99.90;;;;;;5074325;28;20415;-71
2023/03/28 04:04:00;;;;;;;3.17;2.10;;;1.00;99.90;;;;;;5068600;28;20901;-72
2023/03/28 04:06:28;;;;;;;3.03;2.10;;;1.00;99.90;;;;;;5052308;28;20171;-72
2023/03/28 04:08:54;;;;;;;3.53;1.97;;;1.00;99.90;;;;;;5054082;28;20713;-72
2023/03/28 04:11:19;;;;;;;4.80;2.60;;;0.90;99.90;;;;;;5054124;28;20404;-71
2023/03/28 04:13:45;;;;;;;9.67;2.60;;;0.80;99.90;;;;;;5052620;28;20448;-71
2023/03/28 04:16:12;;;;;;;4.37;2.33;;;0.80;99.90;;;;;;5053981;28;20676;-71
2023/03/28 04:18:38;;;;;;;48.10;20.90;;;0.80;99.90;;;;;;5053755;28;20161;-71
2023/03/28 04:21:04;;;;;;;13.37;6.47;;;0.80;99.90;;;;;;5054949;28;20405;-73
2023/03/28 04:23:30;;;;;;;7.03;3.20;;;0.80;99.90;;;;;;5057725;28;20475;-72
2023/03/28 04:25:56;;;;;;;17.73;2.27;;;0.90;99.90;;;;;;5059143;28;20466;-72
2023/03/28 04:28:26;;;;;;;3.33;1.93;;;0.90;99.90;;;;;;5055412;28;20624;-70
2023/03/28 04:30:57;;;;;;;4.27;1.90;;;0.90;99.90;;;;;;5053706;28;20479;-72
2023/03/28 04:33:29;;;;;;;6.90;2.60;;;1.00;99.90;;;;;;5053908;28;20414;-70
2023/03/28 04:35:58;;;;;;;2.03;1.83;;;0.90;99.90;;;;;;5053753;28;20463;-72
2023/03/28 04:38:25;;;;;;;6.57;3.33;;;0.80;99.90;;;;;;5053328;28;20502;-69
2023/03/28 04:40:56;;;;;;;3.27;2.30;;;0.80;99.90;;;;;;5053688;28;20413;-71
2023/03/28 04:43:29;;;;;;;4.70;1.70;;;0.80;99.90;;;;;;5053234;28;20436;-71
2023/03/28 04:45:56;;;;;;;5.23;2.63;;;0.90;99.90;;;;;;5052065;28;20455;-72
2023/03/28 04:48:22;;;;;;;7.77;2.63;;;0.90;99.90;;;;;;5063162;28;20411;-70
2023/03/28 04:50:48;;;;;;;3.20;1.83;;;0.80;99.90;;;;;;5055203;28;20409;-72
2023/03/28 04:53:15;;;;;;;8.90;1.67;;;0.80;99.90;;;;;;5053131;28;20428;-71
2023/03/28 04:55:42;;;;;;;6.10;2.47;;;0.80;99.90;;;;;;5053153;28;20177;-71
2023/03/28 04:58:09;;;;;;;4.93;1.80;;;0.80;99.90;;;;;;5052807;28;20812;-71
2023/03/28 05:00:35;;;;;;;3.40;2.23;;;0.80;99.90;;;;;;5053078;28;20405;-71
2023/03/28 05:03:05;;;;;;;2.60;2.10;;;0.80;99.90;;;;;;5053003;28;20425;-71
2023/03/28 05:05:31;;;;;;;6.70;2.70;;;0.80;99.90;;;;;;5034988;28;20456;-71
2023/03/28 05:07:57;;;;;;;25.07;12.10;;;0.80;99.90;;;;;;5032752;28;20828;-70
2023/03/28 05:10:23;;;;;;;136.10;50.93;;;0.80;99.90;;;;;;5032977;28;20462;-70
2023/03/28 05:12:49;;;;;;;7.73;5.70;;;0.80;99.90;;;;;;5032785;28;20422;-71
2023/03/28 05:15:14;;;;;;;4.50;2.10;;;0.80;99.90;;;;;;5033435;28;20178;-73
2023/03/28 05:17:40;;;;;;;12.50;2.30;;;0.90;99.90;;;;;;5036526;28;20425;-72
2023/03/28 05:20:09;;;;;;;5.13;2.60;;;0.90;99.90;;;;;;5033021;28;20174;-70
2023/03/28 05:22:35;;;;;;;5.30;3.23;;;0.90;99.90;;;;;;5032652;28;20186;-70
2023/03/28 05:25:02;;;;;;;3.47;2.17;;;0.90;99.90;;;;;;5034315;28;20461;-70
2023/03/28 05:27:27;;;;;;;5.43;2.77;;;0.90;99.90;;;;;;5032785;28;20437;-72
2023/03/28 05:29:53;;;;;;;3.87;1.77;;;0.90;99.90;;;;;;5035903;28;21016;-70
2023/03/28 05:32:18;;;;;;;2.13;1.80;;;0.90;99.90;;;;;;5033400;28;20195;-71
2023/03/28 05:34:44;;;;;;;4.10;2.13;;;1.00;99.90;;;;;;5034885;28;20255;-70
2023/03/28 05:37:10;;;;;;;7.23;3.20;;;1.00;99.90;;;;;;5036843;28;20242;-71
2023/03/28 05:39:36;;;;;;;3.83;2.70;;;1.00;99.90;;;;;;5032519;28;20160;-70
2023/03/28 05:42:01;;;;;;;6.53;2.63;;;1.10;99.90;;;;;;5032569;28;20460;-70
2023/03/28 05:44:26;;;;;;;3.30;2.40;;;1.10;99.90;;;;;;5036660;28;20741;-71
2023/03/28 05:46:52;;;;;;;2.70;1.90;;;1.10;99.90;;;;;;5032283;28;20163;-70
2023/03/28 05:49:17;;;;;;;5.20;2.17;;;1.20;99.90;;;;;;5033661;28;20174;-72
2023/03/28 05:51:44;;;;;;;3.57;2.60;;;1.40;99.90;;;;;;5034213;28;20168;-71
2023/03/28 05:54:09;;;;;;;3.53;2.23;;;1.60;99.90;;;;;;5032247;28;20195;-70
2023/03/28 05:56:36;;;;;;;3.47;2.43;;;2.00;99.90;;;;;;5032218;28;20871;-70
2023/03/28 05:59:02;;;;;;;3.13;2.50;;;2.40;99.90;;;;;;5045551;28;20539;-72
2023/03/28 06:01:27;;;;;;;5.63;2.10;;;2.90;99.90;;;;;;5065884;28;20422;-73
2023/03/28 06:03:54;;;;;;;3.60;2.77;;;3.30;99.90;;;;;;5069855;28;20281;-72
2023/03/28 06:06:20;;;;;;;2.93;1.80;;;3.70;99.90;;;;;;5053508;28;20191;-72
2023/03/28 06:08:46;;;;;;;11.13;2.87;;;4.00;99.90;;;;;;5053130;28;20413;-72
2023/03/28 06:11:12;;;;;;;5.00;2.53;;;4.40;99.90;;;;;;5053479;28;20496;-73
2023/03/28 06:13:37;;;;;;;6.20;2.23;;;4.90;99.90;;;;;;5053315;28;20215;-72
2023/03/28 06:16:03;;;;;;;8.00;2.13;;;5.40;99.90;;;;;;5053761;28;20772;-71
2023/03/28 06:18:29;;;;;;;4.23;2.13;;;6.10;99.90;;;;;;5054062;28;20228;-71
2023/03/28 06:20:54;;;;;;;7.20;2.80;;;6.70;99.90;;;;;;5056233;28;20431;-72
2023/03/28 06:23:21;;;;;;;6.20;2.87;;;7.30;99.90;;;;;;5057169;28;20190;-72
2023/03/28 06:25:46;;;;;;;4.83;2.40;;;8.00;99.90;;;;;;5058427;28;20206;-73
2023/03/28 06:28:12;;;;;;;4.20;2.37;;;8.40;99.90;;;;;;5054221;28;20417;-71
2023/03/28 06:30:38;;;;;;;2.83;1.77;;;9.10;99.90;;;;;;5057214;28;20582;-71
2023/03/28 06:33:05;;;;;;;4.23;1.80;;;9.60;99.90;;;;;;5058452;28;20205;-70
2023/03/28 06:35:31;;;;;;;2.90;2.07;;;9.50;99.90;;;;;;5058308;28;20886;-69
2023/03/28 06:37:57;;;;;;;9.27;1.73;;;9.40;99.90;;;;;;5058132;28;20409;-70
2023/03/28 06:40:23;;;;;;;6.00;3.67;;;9.70;99.90;;;;;;5064671;28;20752;-72
2023/03/28 06:42:49;;;;;;;2.10;1.73;;;10.30;99.50;;;;;;5066889;28;20213;-73
2023/03/28 06:45:14;;;;;;;4.33;2.10;;;10.80;96.50;;;;;;5067964;28;20463;-72
2023/03/28 06:47:40;;;;;;;7.50;3.03;;;11.30;92.60;;;;;;5068058;28;20201;-72
2023/03/28 06:50:06;;;;;;;12.63;3.40;;;11.90;89.10;;;;;;5069056;28;20201;-71
2023/03/28 06:52:32;;;;;;;7.00;3.07;;;12.30;80.40;;;;;;5063940;28;20236;-72
2023/03/28 06:54:57;;;;;;;3.73;2.00;;;12.40;74.10;;;;;;5068040;28;20974;-73
2023/03/28 06:57:23;;;;;;;5.17;2.57;;;12.80;74.10;;;;;;5060862;28;20166;-71
2023/03/28 06:59:50;;;;;;;1.93;1.80;;;13.30;68.20;;;;;;5058287;28;20257;-71
2023/03/28 07:02:16;;;;;;;5.13;2.20;;;13.40;64.00;;;;;;5058167;28;20776;-71
2023/03/28 07:04:42;;;;;;;8.93;2.23;;;13.60;61.30;;;;;;5046816;28;20454;-71
2023/03/28 07:07:08;;;;;;;5.93;2.00;;;13.90;60.80;;;;;;5037913;28;20779;-71
2023/03/28 07:09:35;;;;;;;4.20;2.37;;;13.80;58.30;;;;;;5038123;28;20629;-71
2023/03/28 07:12:01;;;;;;;9.57;2.13;;;13.50;58.70;;;;;;5065018;28;20416;-71
2023/03/28 07:14:26;;;;;;;3.80;2.10;;;13.00;58.80;;;;;;5078006;28;20861;-71
2023/03/28 07:16:52;;;;;;;3.47;1.60;;;13.40;61.20;;;;;;5077809;28;20423;-71
2023/03/28 07:19:17;;;;;;;4.37;2.50;;;14.00;59.40;;;;;;5077973;28;20173;-71
2023/03/28 07:21:43;;;;;;;4.23;2.30;;;14.30;58.10;;;;;;5077980;28;20182;-72
2023/03/28 07:24:08;;;;;;;7.13;2.10;;;15.40;57.30;;;;;;5077931;28;20566;-72
2023/03/28 07:26:34;;;;;;;7.60;2.67;;;16.20;54.20;;;;;;5078181;28;20178;-73
2023/03/28 07:28:59;;;;;;;2.93;1.67;;;16.80;52.40;;;;;;5079994;28;20162;-73
2023/03/28 07:31:25;;;;;;;5.20;2.33;;;17.70;52.10;;;;;;5078241;28;20170;-73
2023/03/28 07:33:51;;;;;;;2.30;1.90;;;18.00;48.90;;;;;;5077938;28;20271;-72
2023/03/28 07:36:20;;;;;;;2.77;1.70;;;18.90;49.40;;;;;;5078709;28;20408;-72
2023/03/28 07:38:46;;;;;;;5.40;2.30;;;19.30;45.30;;;;;;5077525;28;20174;-72
2023/03/28 07:41:11;;;;;;;5.33;1.73;;;20.20;45.60;;;;;;5074897;28;20491;-72
2023/03/28 07:43:38;;;;;;;5.40;2.33;;;19.80;42.80;;;;;;5075788;28;20452;-73
2023/03/28 07:46:06;;;;;;;3.47;1.80;;;19.40;43.60;;;;;;5077016;28;20194;-73
2023/03/28 07:48:33;;;;;;;2.90;2.17;;;19.60;43.50;;;;;;5073112;28;20408;-73
2023/03/28 07:51:00;;;;;;;2.73;1.87;;;19.40;42.90;;;;;;5077460;28;20792;-72
2023/03/28 07:53:26;;;;;;;6.20;2.00;;;19.80;43.00;;;;;;5074418;28;20992;-71
2023/03/28 07:55:52;;;;;;;5.93;2.13;;;20.10;43.50;;;;;;5074520;28;20444;-72
2023/03/28 07:58:17;;;;;;;8.70;1.80;;;19.70;41.40;;;;;;5074697;28;20900;-74
2023/03/28 08:00:44;;;;;;;3.23;2.20;;;20.10;42.00;;;;;;5073423;28;20417;-72
2023/03/28 08:03:13;;;;;;;3.60;2.07;;;20.30;41.60;;;;;;5074333;28;20190;-71
2023/03/28 08:05:38;;;;;;;2.67;1.50;;;20.50;40.90;;;;;;5057950;28;20483;-73
2023/03/28 08:08:05;;;;;;;3.87;1.83;;;20.60;40.20;;;;;;5055199;28;20483;-72
2023/03/28 08:10:32;;;;;;;2.77;1.73;;;21.10;40.30;;;;;;5054139;28;20173;-71
2023/03/28 08:12:57;;;;;;;3.80;1.90;;;21.60;38.30;;;;;;5054064;28;20465;-73
2023/03/28 08:15:23;;;;;;;3.23;1.80;;;21.70;39.70;;;;;;5054585;28;20933;-73
2023/03/28 08:17:49;;;;;;;3.93;1.50;;;22.40;38.30;;;;;;5066517;28;20223;-73
2023/03/28 08:20:14;;;;;;;2.40;1.60;;;24.00;39.50;;;;;;5054205;28;20178;-74
2023/03/28 08:22:40;;;;;;;2.87;1.83;;;24.80;36.70;;;;;;5054021;28;20187;-72
2023/03/28 08:25:06;;;;;;;2.13;1.60;;;25.80;36.00;;;;;;5053844;28;20332;-72
2023/03/28 08:27:33;;;;;;;6.30;1.97;;;26.60;34.30;;;;;;5053656;28;20539;-72
2023/03/28 08:29:58;;;;;;;1.97;1.40;;;27.40;33.70;;;;;;5053762;28;20402;-72
2023/03/28 08:32:25;;;;;;;2.90;1.30;;;28.00;32.00;;;;;;5053826;28;20547;-72
2023/03/28 08:34:51;;;;;;;3.30;1.80;;;27.70;29.60;;;;;;5053775;28;20760;-73
2023/03/28 08:37:16;;;;;;;2.90;1.23;;;27.50;29.50;;;;;;5053345;28;20408;-71
2023/03/28 08:39:42;;;;;;;1.83;1.50;;;28.30;31.10;;;;;;5053606;28;20246;-71
2023/03/28 08:42:27;;;;;;;2.10;1.30;;;28.20;28.50;;;;;;5053186;28;20250;-71
2023/03/28 08:44:55;;;;;;;1.93;1.30;;;29.20;30.00;;;;;;5053409;28;20183;-71
2023/03/28 08:47:33;;;;;;;1.67;1.30;;;30.30;29.00;;;;;;5053069;28;20822;-72
2023/03/28 08:50:15;;;;;;;2.50;1.40;;;31.10;28.10;;;;;;5053356;28;20394;-72
2023/03/28 08:52:42;;;;;;;9.13;2.73;;;32.20;28.60;;;;;;5053134;28;20415;-73
2023/03/28 08:55:41;;;;;;;4.00;1.50;;;32.60;26.90;;;;;;5053244;28;20488;-72
2023/03/28 08:58:22;;;;;;;2.47;1.70;;;32.10;25.00;;;;;;5051269;28;20417;-71
2023/03/28 09:00:49;;;;;;;2.03;1.03;;;31.40;25.20;;;;;;5051870;28;20491;-71
2023/03/28 09:03:20;;;;;;;2.23;1.73;;;29.00;24.70;;;;;;5053132;28;20429;-71
2023/03/28 09:06:12;;;;;;;3.17;1.80;;;27.00;24.60;;;;;;5033126;28;20453;-71
2023/03/28 09:08:49;;;;;;;2.40;1.33;;;25.40;26.80;;;;;;5024220;28;20500;-72
2023/03/28 09:11:24;;;;;;;1.97;1.40;;;24.10;27.30;;;;;;5033189;28;20400;-71
2023/03/28 09:14:15;;;;;;;3.83;1.67;;;22.80;28.10;;;;;;5031508;28;20449;-71
2023/03/28 09:16:52;;;;;;;4.17;2.60;;;21.40;28.80;;;;;;5031451;28;20402;-71
2023/03/28 09:19:33;;;;;;;7.47;2.87;;;20.70;29.20;;;;;;5032937;28;20398;-71
2023/03/28 09:22:20;;;;;;;3.13;2.07;;;20.50;30.10;;;;;;5031678;28;20414;-71
2023/03/28 09:25:04;;;;;;;3.00;1.57;;;22.10;32.90;;;;;;5031787;28;20946;-70
2023/03/28 09:27:36;;;;;;;4.63;1.67;;;24.50;31.70;;;;;;5037133;28;20401;-71
2023/03/28 09:30:22;;;;;;;2.60;1.00;;;26.50;28.90;;;;;;5063711;28;20484;-71
2023/03/28 09:32:51;;;;;;;3.00;1.30;;;27.50;26.70;;;;;;5052547;28;20517;-71
2023/03/28 09:35:20;;;;;;;4.10;1.03;;;27.80;26.20;;;;;;5052620;28;20488;-70
2023/03/28 09:38:01;;;;;;;2.40;1.20;;;27.00;25.40;;;;;;5052327;28;20397;-71
2023/03/28 09:40:32;;;;;;;3.67;1.40;;;25.80;25.90;;;;;;5052528;28;20424;-70
2023/03/28 09:43:13;;;;;;;2.07;1.00;;;25.60;26.60;;;;;;5052257;28;20418;-70
2023/03/28 09:45:49;;;;;;;2.17;1.40;;;25.30;26.70;;;;;;5052097;28;20453;-70
2023/03/28 09:48:22;;;;;;;3.13;1.20;;;26.30;28.00;;;;;;5052074;28;20404;-70
2023/03/28 09:50:48;;;;;;;1.70;1.30;;;26.70;25.90;;;;;;5052534;28;20390;-71
2023/03/28 09:53:21;;;;;;;3.07;1.30;;;26.10;25.60;;;;;;5052567;28;20417;-71
2023/03/28 09:55:47;;;;;;;2.20;0.80;;;26.00;26.10;;;;;;5052167;28;20401;-70
2023/03/28 09:58:17;;;;;;;2.23;1.30;;;26.00;25.60;;;;;;5051895;28;20417;-70
2023/03/28 10:00:49;;;;;;;2.83;1.57;;;25.40;25.80;;;;;;5052413;28;20779;-70
2023/03/28 10:03:33;;;;;;;4.20;1.10;;;24.40;25.80;;;;;;5050238;28;20456;-71
2023/03/28 10:06:16;;;;;;;5.90;1.20;;;24.10;26.70;;;;;;5032163;28;20452;-71
2023/03/28 10:08:43;;;;;;;1.57;1.00;;;23.60;26.50;;;;;;5031844;28;20460;-71
2023/03/28 10:11:16;;;;;;;2.70;0.83;;;22.80;26.00;;;;;;5032069;28;20411;-71
2023/03/28 10:13:46;;;;;;;4.10;1.10;;;21.90;26.20;;;;;;5030752;28;20438;-70
2023/03/28 10:16:29;;;;;;;1.60;1.20;;;20.90;26.60;;;;;;5030224;28;20997;-70
2023/03/28 10:18:55;;;;;;;2.90;1.07;;;20.30;27.50;;;;;;5029806;28;20419;-70
2023/03/28 10:21:24;;;;;;;1.30;1.10;;;20.20;28.60;;;;;;5030125;28;20406;-71
2023/03/28 10:24:14;;;;;;;1.90;1.43;;;20.10;28.30;;;;;;5031439;28;20635;-70
2023/03/28 10:26:40;;;;;;;3.00;1.20;;;19.60;28.10;;;;;;5031985;28;20406;-71
2023/03/28 10:29:09;;;;;;;2.60;1.10;;;19.50;28.30;;;;;;5031141;28;20452;-70
2023/03/28 10:31:37;;;;;;;1.40;1.10;;;19.40;28.60;;;;;;5031994;28;20390;-71
2023/03/28 10:34:03;;;;;;;3.27;0.90;;;19.60;28.70;;;;;;5050317;28;20433;-70
2023/03/28 10:36:32;;;;;;;2.20;1.03;;;19.80;29.20;;;;;;5056234;28;20451;-71
2023/03/28 10:38:58;;;;;;;1.67;1.10;;;20.40;29.10;;;;;;5051423;28;20194;-70
2023/03/28 10:41:26;;;;;;;3.13;1.70;;;21.30;28.20;;;;;;5051664;28;20385;-71
2023/03/28 10:43:53;;;;;;;1.40;1.00;;;21.50;27.50;;;;;;5051549;28;20412;-71
2023/03/28 10:46:22;;;;;;;1.30;0.97;;;21.60;27.50;;;;;;5051606;28;20875;-70
2023/03/28 10:48:51;;;;;;;6.20;1.10;;;21.80;27.80;;;;;;5050906;28;20950;-70
2023/03/28 10:51:22;;;;;;;1.10;0.80;;;21.60;27.80;;;;;;5051442;28;20428;-70
2023/03/28 10:54:15;;;;;;;1.83;1.17;;;21.90;27.70;;;;;;5051641;28;20433;-71
2023/03/28 10:56:51;;;;;;;1.37;0.80;;;21.60;27.20;;;;;;5050260;28;20416;-71
2023/03/28 10:59:41;;;;;;;1.30;0.80;;;21.00;26.90;;;;;;5051477;28;20404;-71
2023/03/28 11:02:47;;;;;;;3.17;1.10;;;20.50;26.50;;;;;;5051576;28;20468;-71
2023/03/28 11:05:28;;;;;;;1.17;0.87;;;20.00;27.20;;;;;;5035913;28;20453;-71
2023/03/28 11:08:27;;;;;;;5.13;1.50;;;19.30;27.80;;;;;;5031178;28;20425;-71
2023/03/28 11:11:08;;;;;;;6.80;3.23;;;19.30;28.20;;;;;;5031409;28;20430;-71
2023/03/28 11:13:46;;;;;;;2.53;1.00;;;18.70;28.10;;;;;;5031457;28;20438;-71
2023/03/28 11:16:29;;;;;;;2.03;1.20;;;19.00;28.90;;;;;;5033210;28;20401;-71
2023/03/28 11:19:09;;;;;;;4.60;1.63;;;18.70;28.10;;;;;;5034988;28;20398;-71
2023/03/28 11:21:46;;;;;;;2.80;0.90;;;18.00;28.40;;;;;;5035240;28;20402;-71
2023/03/28 11:24:25;;;;;;;1.10;1.00;;;17.90;28.60;;;;;;5033811;28;20981;-71
2023/03/28 11:26:56;;;;;;;2.83;1.00;;;17.60;28.30;;;;;;5034641;28;20439;-71
2023/03/28 11:29:32;;;;;;;1.00;0.80;;;17.00;28.90;;;;;;5034585;28;20406;-71
2023/03/28 11:32:06;;;;;;;1.43;1.10;;;16.20;28.90;;;;;;5035032;28;20402;-70
2023/03/28 11:34:37;;;;;;;1.57;1.00;;;15.70;29.30;;;;;;5034952;28;20430;-70
2023/03/28 11:37:16;;;;;;;3.77;1.20;;;15.60;29.50;;;;;;5034780;28;20405;-70
2023/03/28 11:40:08;;;;;;;2.43;1.47;;;15.70;30.30;;;;;;5033429;28;20422;-71
2023/03/28 11:42:42;;;;;;;2.33;1.00;;;15.70;30.50;;;;;;5035052;28;20998;-71
2023/03/28 11:45:36;;;;;;;1.30;0.90;;;16.40;32.80;;;;;;5047222;28;20449;-70
2023/03/28 11:48:17;;;;;;;2.80;1.10;;;17.40;32.50;;;;;;5069325;28;20508;-71
2023/03/28 11:50:45;;;;;;;2.07;1.23;;;18.00;30.70;;;;;;5074381;28;20905;-71
2023/03/28 11:53:23;;;;;;;3.00;1.90;;;19.10;30.00;;;;;;5074499;28;20424;-70
2023/03/28 11:55:58;;;;;;;4.40;1.10;;;20.20;29.60;;;;;;5073406;28;20780;-70
2023/03/28 11:58:27;;;;;;;2.97;1.60;;;21.20;29.30;;;;;;5074219;28;20404;-70
2023/03/28 12:01:14;;;;;;;2.53;1.37;;;22.30;28.40;;;;;;5074473;28;20405;-70
2023/03/28 12:04:16;;;;;;;6.40;1.20;;;24.30;28.40;;;;;;5071306;28;20416;-71
2023/03/28 12:06:52;;;;;;;1.70;1.53;;;26.60;27.10;;;;;;5054333;28;20464;-71
2023/03/28 12:09:40;;;;;;;3.70;1.80;;;27.60;25.10;;;;;;5052955;28;20827;-71
2023/03/28 12:12:51;;;;;;;2.60;1.40;;;28.70;25.40;;;;;;5054165;28;20401;-72
2023/03/28 12:15:21;;;;;;;2.20;1.50;;;31.40;25.00;;;;;;5044114;28;20426;-72
2023/03/28 12:18:01;;;;;;;2.07;1.30;;;32.60;23.70;;;;;;5054015;28;20425;-72
2023/03/28 12:20:29;;;;;;;2.10;1.33;;;32.90;22.80;;;;;;5054100;28;20401;-71
2023/03/28 12:23:02;;;;;;;1.73;1.47;;;34.30;22.90;;;;;;5053951;28;20417;-72
2023/03/28 12:25:34;;;;;;;2.13;1.20;;;35.90;22.20;;;;;;5053914;28;20459;-71
2023/03/28 12:28:25;;;;;;;2.10;1.70;;;36.00;21.30;;;;;;5053184;28;20398;-71
2023/03/28 12:31:05;;;;;;;1.77;1.60;;;36.10;20.50;;;;;;5053982;28;20405;-72
2023/03/28 12:33:44;;;;;;;1.93;1.40;;;36.50;20.70;;;;;;5053769;28;20425;-72
2023/03/28 12:36:27;;;;;;;2.10;1.90;;;37.30;20.70;;;;;;5053877;28;20404;-72
2023/03/28 12:39:23;;;;;;;3.67;1.50;;;37.90;20.10;;;;;;5053477;28;20918;-71
2023/03/28 12:41:52;;;;;;;5.00;1.40;;;36.90;19.30;;;;;;5052305;28;20430;-71
2023/03/28 12:44:23;;;;;;;1.60;1.50;;;35.60;19.20;;;;;;5053397;28;20425;-71
2023/03/28 12:47:01;;;;;;;1.47;1.30;;;33.40;19.40;;;;;;5053400;28;20407;-72
2023/03/28 12:49:54;;;;;;;3.10;1.77;;;31.90;20.10;;;;;;5053579;28;20405;-70
2023/03/28 12:52:33;;;;;;;2.50;1.50;;;29.00;20.30;;;;;;5050928;28;20418;-71
2023/03/28 12:55:27;;;;;;;1.57;1.10;;;27.70;21.70;;;;;;5053286;28;20543;-71
2023/03/28 12:58:09;;;;;;;3.20;1.60;;;26.20;22.20;;;;;;5061686;28;20417;-71
2023/03/28 13:00:57;;;;;;;1.50;1.23;;;24.00;23.00;;;;;;5053471;28;20468;-71
2023/03/28 13:03:41;;;;;;;1.90;1.30;;;22.80;24.00;;;;;;5051472;28;20536;-71
2023/03/28 13:06:38;;;;;;;2.30;1.40;;;22.30;24.90;;;;;;5033169;28;20457;-71
2023/03/28 13:09:28;;;;;;;5.87;1.90;;;20.70;25.10;;;;;;5032992;28;20994;-71
2023/03/28 13:12:16;;;;;;;1.20;1.07;;;20.10;26.30;;;;;;5031926;28;20512;-71
2023/03/28 13:14:41;;;;;;;2.50;1.20;;;20.10;27.00;;;;;;5032988;28;20472;-72